createdAt,value
2019-06-08T00:04:45.585Z,1.47
2019-06-08T00:09:54.738Z,1.47
2019-06-08T00:15:03.882Z,1.68
2019-06-08T00:20:13.458Z,1.94
2019-06-08T00:25:22.554Z,1.45
2019-06-08T00:30:41.469Z,1.70
2019-06-08T00:35:39.505Z,1.62
2019-06-08T00:40:48.722Z,1.58
2019-06-08T00:45:57.862Z,1.54
2019-06-08T00:51:07.128Z,1.67
2019-06-08T00:56:17.384Z,1.70
2019-06-08T01:01:36.941Z,1.66
2019-06-08T01:06:27.387Z,1.47
2019-06-08T01:11:34.925Z,1.69
2019-06-08T01:16:44.359Z,1.56
2019-06-08T01:21:55.589Z,1.50
2019-06-08T01:26:54.696Z,1.69
2019-06-08T01:32:02.383Z,1.74
2019-06-08T01:37:12.087Z,1.70
2019-06-08T01:42:21.438Z,1.68
2019-06-08T01:47:30.757Z,1.91
2019-06-08T01:52:51.752Z,1.65
2019-06-08T01:57:40.847Z,1.77
2019-06-08T02:03:01.877Z,1.61
2019-06-08T02:07:50.978Z,2.02
2019-06-08T02:13:00.287Z,1.79
2019-06-08T02:18:09.489Z,1.71
2019-06-08T02:23:18.629Z,1.58
2019-06-08T02:28:27.763Z,1.69
2019-06-08T02:33:40.467Z,1.74
2019-06-08T02:38:37.817Z,1.99
2019-06-08T02:43:47.281Z,1.81
2019-06-08T02:49:04.156Z,1.68
2019-06-08T02:54:05.202Z,2.08
2019-06-08T02:59:14.461Z,1.83
2019-06-08T03:04:23.650Z,2.00
2019-06-08T03:09:34.622Z,1.75
2019-06-08T03:14:42.169Z,1.79
2019-06-08T03:19:51.193Z,1.78
2019-06-08T03:25:00.296Z,1.85
2019-06-08T03:30:17.084Z,2.15
2019-06-08T03:35:18.439Z,2.18
2019-06-08T03:40:27.691Z,2.04
2019-06-08T03:45:38.128Z,1.91
2019-06-08T03:50:46.722Z,1.93
2019-06-08T03:55:47.264Z,1.85
2019-06-08T04:00:58.355Z,2.56
2019-06-08T04:05:57.389Z,2.21
2019-06-08T04:11:08.654Z,2.23
2019-06-08T04:16:07.663Z,2.10
2019-06-08T04:21:16.798Z,2.18
2019-06-08T04:26:25.881Z,2.18
2019-06-08T04:31:35.134Z,2.20
2019-06-08T04:36:46.305Z,2.11
2019-06-08T04:41:53.244Z,2.49
2019-06-08T04:47:02.529Z,2.62
2019-06-08T04:52:12.872Z,2.46
2019-06-08T04:57:11.883Z,2.43
2019-06-08T05:02:21.417Z,2.81
2019-06-08T05:07:31.341Z,2.63
2019-06-08T05:12:41.312Z,2.75
2019-06-08T05:17:49.644Z,2.21
2019-06-08T05:23:02.239Z,2.33
2019-06-08T05:28:01.274Z,2.53
2019-06-08T05:33:10.497Z,2.61
2019-06-08T05:38:20.266Z,2.14
2019-06-08T05:43:29.794Z,2.38
2019-06-08T05:48:39.761Z,2.15
2019-06-08T05:53:47.920Z,1.85
2019-06-08T05:58:56.917Z,2.32
2019-06-08T06:04:06.102Z,1.74
2019-06-08T06:09:15.324Z,2.02
2019-06-08T06:14:24.478Z,1.92
2019-06-08T06:19:33.576Z,2.04
2019-06-08T06:24:43.765Z,2.10
2019-06-08T06:30:05.441Z,2.03
2019-06-08T06:34:54.494Z,1.89
2019-06-08T06:40:04.723Z,2.03
2019-06-08T06:45:04.342Z,1.85
2019-06-08T06:50:13.737Z,2.07
2019-06-08T06:55:25.392Z,2.15
2019-06-08T07:00:32.921Z,2.25
2019-06-08T07:05:33.422Z,2.18
2019-06-08T07:10:46.327Z,1.81
2019-06-08T07:15:41.595Z,1.85
2019-06-08T07:20:43.777Z,1.81
2019-06-08T07:25:54.546Z,1.84
2019-06-08T07:31:03.828Z,1.75
2019-06-08T07:36:03.781Z,1.95
2019-06-08T07:41:13.386Z,1.91
2019-06-08T07:46:23.487Z,1.72
2019-06-08T07:51:34.853Z,1.79
2019-06-08T07:56:24.221Z,1.48
2019-06-08T19:47:31.275Z,1.11
2019-06-08T19:52:22.233Z,1.25
2019-06-08T19:57:20.875Z,1.11
2019-06-08T20:02:31.410Z,0.95
2019-06-08T20:07:31.432Z,1.04
2019-06-08T20:12:41.504Z,1.13
2019-06-08T20:17:41.636Z,0.90
2019-06-08T20:22:51.800Z,0.86
2019-06-08T20:28:00.015Z,1.01
2019-06-08T20:33:11.612Z,0.93
2019-06-08T20:38:01.427Z,0.91
2019-06-08T20:43:11.394Z,0.99
2019-06-08T20:48:21.339Z,0.94
2019-06-08T20:53:42.604Z,1.11
2019-06-08T20:58:33.288Z,0.96
2019-06-08T21:03:33.683Z,1.23
2019-06-08T21:08:33.128Z,1.24
2019-06-08T21:13:45.133Z,1.22
2019-06-08T21:18:52.961Z,1.09
2019-06-08T21:24:01.554Z,1.37
2019-06-08T21:29:10.438Z,1.18
2019-06-08T21:34:20.679Z,1.30
2019-06-08T21:39:21.130Z,1.23
2019-06-08T21:44:20.515Z,1.29
2019-06-08T21:49:30.197Z,1.16
2019-06-08T21:54:39.566Z,1.18
2019-06-08T22:00:05.726Z,1.08
2019-06-08T22:05:02.685Z,1.25
2019-06-08T22:10:12.219Z,1.12
2019-06-08T22:15:11.693Z,1.11
2019-06-08T22:20:21.643Z,1.33
2019-06-08T22:25:33.262Z,1.16
2019-06-08T22:30:43.172Z,1.14
2019-06-08T22:35:49.430Z,1.20
2019-06-08T22:41:00.709Z,1.36
2019-06-08T22:46:08.583Z,1.26
2019-06-08T22:51:22.195Z,1.33
2019-06-08T22:56:21.652Z,1.22
2019-06-08T23:01:34.179Z,1.38
2019-06-08T23:06:33.626Z,1.37
2019-06-08T23:11:43.399Z,1.24
2019-06-08T23:16:52.923Z,1.27
2019-06-08T23:22:04.053Z,1.26
2019-06-08T23:27:02.476Z,1.16
2019-06-08T23:32:12.052Z,1.54
2019-06-08T23:37:22.079Z,1.44
2019-06-08T23:47:30.189Z,1.51
2019-06-08T23:52:39.828Z,1.31
2019-06-08T23:57:49.372Z,1.12
